Latest Weather Observations for Leigh Creek

IDS60801

Issued at 3:31 pm CDT Sunday 21 December 2014 (issued every 30 minutes, with the page automatically refreshed every 10 minutes)

About weather observations | Map of weather stations | Latest weather observations for SA | Other Formats
Station Details ID: 017110 Name: LEIGH CREEK AIRPORT Lat: -30.60 Lon: 138.42 Height: 258.8 m
Data from the previous 72 hours. | See also: Recent months at Leigh Creek
Date/Time
CDT
Temp
°C
App
Temp
°C
Dew
Point
Rel
Hum
%
Delta-T
°C
Wind Press
QNH
hPa
Press
MSL
hPa
Rain
since 9 am
mm
Dir
 
Spd
km/h
Gust
km/h
Spd
kts
Gust
kts
21/03:30pm 36.6 32.1 -3.0 8 19.1 W 11 20 6 11 1010.2 1008.8 0.0
21/03:00pm 36.3 31.4 -3.2 8 18.9 WNW 13 26 7 14 1010.4 1009.0 0.0
21/02:30pm 35.7 30.4 -3.6 8 18.6 NNW 15 26 8 14 1010.8 1009.4 0.0
21/02:00pm 36.4 32.7 -3.1 8 18.9 N 7 15 4 8 1011.2 1009.8 0.0
21/01:30pm 37.2 31.3 -2.5 8 19.3 NNW 19 30 10 16 1011.6 1010.2 0.0
21/01:00pm 36.3 30.1 -3.2 8 18.9 N 20 30 11 16 1012.3 1010.9 0.0
21/12:30pm 35.6 29.7 -2.1 9 18.3 NNE 19 33 10 18 1012.7 1011.2 0.0
21/12:00pm 35.0 30.2 -2.6 9 18.0 NNE 13 26 7 14 1013.0 1011.5 0.0
21/11:30am 34.8 29.8 -1.3 10 17.6 NNW 15 24 8 13 1013.0 1011.5 0.0
21/11:00am 34.1 28.3 -1.8 10 17.3 N 19 28 10 15 1013.4 1011.9 0.0
21/10:30am 33.0 27.6 -1.4 11 16.6 N 17 28 9 15 1013.7 1012.3 0.0
21/10:00am 32.0 25.7 -0.9 12 15.9 NNE 22 32 12 17 1013.6 1012.2 0.0
21/09:30am 31.6 25.3 -1.2 12 15.7 NNE 22 32 12 17 1013.6 1012.2 0.0
21/09:00am 30.8 24.1 -0.8 13 15.1 NE 24 32 13 17 1013.4 1011.9 0.0
21/08:30am 30.8 24.9 -0.8 13 15.1 NE 20 28 11 15 1013.3 1011.8 0.0
21/08:00am 28.6 23.1 0.3 16 13.6 E 19 20 10 11 1013.1 1011.6 0.0
21/07:30am 25.9 20.8 0.5 19 12.0 E 17 22 9 12 1012.9 1011.4 0.0
21/07:00am 22.2 18.1 0.1 23 10.1 ESE 11 17 6 9 1013.0 1011.5 0.0
21/06:30am 21.4 17.7 0.0 24 9.7 SE 9 13 5 7 1012.5 1011.0 0.0
21/06:00am 19.9 16.7 -0.7 25 9.1 SE 6 9 3 5 1012.2 1010.8 0.0
21/05:30am 20.9 16.8 -0.4 24 9.5 ESE 11 13 6 7 1012.0 1010.6 0.0
21/05:00am 20.6 16.0 -0.7 24 9.5 ESE 13 17 7 9 1012.0 1010.6 0.0
21/04:30am 20.3 18.2 -0.9 24 9.4 CALM 0 0 0 0 1011.9 1010.5 0.0
21/04:00am 21.0 17.7 -0.9 23 9.7 SE 6 9 3 5 1011.9 1010.5 0.0
21/03:30am 21.3 17.9 -0.6 23 9.8 SE 7 9 4 5 1012.0 1010.6 0.0
21/03:00am 22.8 20.8 0.0 22 10.5 CALM 0 0 0 0 1012.2 1010.8 0.0
21/02:30am 23.1 21.1 -0.4 21 10.7 CALM 0 0 0 0 1012.2 1010.8 0.0
21/02:00am 25.1 23.1 -0.1 19 11.7 CALM 0 0 0 0 1012.2 1010.8 0.0
21/01:30am 24.3 22.4 0.6 21 11.1 CALM 0 0 0 0 1012.5 1011.0 0.0
21/01:00am 24.2 21.0 -0.2 20 11.3 NNW 6 11 3 6 1012.9 1011.4 0.0
21/12:30am 25.1 21.4 -0.1 19 11.7 NNE 9 15 5 8 1013.2 1011.7 0.0
21/12:00am 25.1 23.1 -0.1 19 11.7 CALM 0 0 0 0 1013.4 1011.9 0.0
 
Date/Time
CDT
Temp
°C
App
Temp
°C
Dew
Point
Rel
Hum
%
Delta-T
°C
Wind Press
QNH
hPa
Press
MSL
hPa
Rain
since 9 am
mm
Dir
 
Spd
km/h
Gust
km/h
Spd
kts
Gust
kts
20/11:30pm 24.9 23.0 0.4 20 11.5 CALM 0 0 0 0 1013.6 1012.2 0.0
20/11:00pm 25.7 22.6 0.4 19 11.9 E 6 9 3 5 1013.5 1012.0 0.0
20/10:30pm 26.8 22.4 0.5 18 12.5 E 13 15 7 8 1013.4 1011.9 0.0
20/10:00pm 27.9 22.4 0.6 17 13.1 E 19 20 10 11 1013.3 1011.8 0.0
20/09:30pm 28.8 23.8 1.3 17 13.5 ENE 17 20 9 11 1013.1 1011.6 0.0
20/09:00pm 29.9 24.9 1.4 16 14.1 ESE 17 24 9 13 1012.8 1011.3 0.0
20/08:30pm 30.9 24.6 1.3 15 14.7 E 24 30 13 16 1012.3 1010.9 0.0
20/08:00pm 32.8 29.5 -1.5 11 16.5 S 6 11 3 6 1012.1 1010.7 0.0
20/07:30pm 33.3 28.9 -2.4 10 17.0 SSW 11 17 6 9 1012.0 1010.6 0.0
20/07:00pm 34.0 29.7 -1.9 10 17.3 W 11 15 6 8 1011.9 1010.5 0.0
20/06:30pm 33.9 29.2 -2.0 10 17.2 SSE 13 19 7 10 1011.8 1010.4 0.0
20/06:00pm 34.1 30.5 -1.8 10 17.3 S 7 15 4 8 1011.8 1010.4 0.0
20/05:30pm 34.7 30.1 -1.4 10 17.6 S 13 24 7 13 1011.9 1010.5 0.0
20/05:00pm 34.4 30.3 -0.3 11 17.2 W 11 24 6 13 1012.0 1010.6 0.0
20/04:30pm 33.7 29.5 -0.8 11 16.9 SE 11 22 6 12 1012.3 1010.9 0.0
20/04:00pm 34.2 30.4 -0.4 11 17.1 WNW 9 20 5 11 1012.8 1011.3 0.0
20/03:30pm 33.5 28.9 -1.0 11 16.8 S 13 26 7 14 1013.3 1011.8 0.0
20/03:00pm 33.8 29.6 -0.7 11 16.9 S 11 26 6 14 1013.9 1012.5 0.0
20/02:30pm 33.3 30.0 0.1 12 16.4 NNW 7 20 4 11 1014.2 1012.8 0.0
20/02:00pm 33.9 29.3 -0.7 11 17.0 NW 13 24 7 13 1014.7 1013.3 0.0
20/01:30pm 32.3 28.7 0.4 13 15.8 SSW 9 20 5 11 1015.1 1013.7 0.0
20/01:00pm 31.4 26.9 -0.3 13 15.4 E 13 20 7 11 1015.6 1014.2 0.0
20/12:30pm 30.6 26.7 1.0 15 14.6 SE 11 17 6 9 1016.0 1014.6 0.0
20/12:00pm 30.2 26.6 0.7 15 14.4 E 9 19 5 10 1016.4 1015.0 0.0
20/11:30am 28.5 24.5 0.3 16 13.5 ESE 11 24 6 13 1016.9 1015.4 0.0
20/11:00am 28.3 24.2 0.1 16 13.5 ESE 11 20 6 11 1017.3 1015.9 0.0
20/10:30am 28.1 23.8 0.8 17 13.2 ESE 13 24 7 13 1017.3 1015.9 0.0
20/10:00am 28.3 22.8 1.7 18 13.1 E 20 28 11 15 1017.6 1016.2 0.0
20/09:30am 27.2 20.5 1.6 19 12.5 E 26 35 14 19 1017.6 1016.2 0.0
20/09:00am 26.7 20.1 1.9 20 12.1 E 26 32 14 17 1017.7 1016.3 0.0
20/08:30am 25.1 17.9 0.6 20 11.5 E 28 35 15 19 1017.7 1016.3 0.0
20/08:00am 24.2 17.7 0.5 21 11.1 E 24 32 13 17 1017.9 1016.5 0.0
20/07:30am 23.0 18.3 0.8 23 10.3 ENE 15 26 8 14 1017.5 1016.1 0.0
20/07:00am 21.7 18.4 0.3 24 9.8 NE 7 17 4 9 1017.4 1016.0 0.0
20/06:30am 19.8 17.9 0.3 27 8.8 CALM 0 6 0 3 1017.1 1015.7 0.0
20/06:00am 20.3 17.2 0.2 26 9.0 ESE 6 11 3 6 1016.9 1015.4 0.0
20/05:30am 21.0 15.5 0.8 26 9.3 E 19 26 10 14 1016.4 1015.0 0.0
20/05:00am 21.2 15.1 0.4 25 9.5 E 22 28 12 15 1016.0 1014.6 0.0
20/04:30am 21.7 15.3 0.8 25 9.6 E 24 35 13 19 1015.8 1014.4 0.0
20/04:00am 21.8 15.3 0.4 24 9.8 E 24 33 13 18 1016.0 1014.6 0.0
20/03:30am 22.4 16.0 0.9 24 10.0 ESE 24 35 13 19 1015.8 1014.4 0.0
20/03:00am 22.3 16.9 1.3 25 9.8 ESE 19 28 10 15 1015.7 1014.3 0.0
20/02:30am 22.4 16.9 0.9 24 10.0 E 19 24 10 13 1015.9 1014.5 0.0
20/02:00am 22.7 17.0 0.5 23 10.3 E 20 26 11 14 1016.1 1014.7 0.0
20/01:30am 22.3 17.9 0.2 23 10.1 ESE 13 15 7 8 1016.4 1015.0 0.0
20/01:00am 23.2 17.9 -0.3 21 10.7 ESE 17 24 9 13 1016.6 1015.1 0.0
20/12:30am 22.0 19.0 4.1 31 8.8 S 9 13 5 7 1016.6 1015.1 0.0
20/12:00am 22.9 20.3 4.4 30 9.2 S 7 11 4 6 1016.7 1015.2 0.0
 
Date/Time
CDT
Temp
°C
App
Temp
°C
Dew
Point
Rel
Hum
%
Delta-T
°C
Wind Press
QNH
hPa
Press
MSL
hPa
Rain
since 9 am
mm
Dir
 
Spd
km/h
Gust
km/h
Spd
kts
Gust
kts
19/11:30pm 22.9 20.1 3.4 28 9.5 S 7 11 4 6 1017.0 1015.5 0.0
19/11:00pm 24.9 20.8 4.1 26 10.4 S 15 19 8 10 1017.1 1015.7 0.0
19/10:30pm 25.6 19.5 2.9 23 11.2 SSW 24 33 13 18 1016.7 1015.2 0.0
19/10:00pm 26.1 20.3 2.1 21 11.7 SSW 22 30 12 16 1016.4 1015.0 0.0
19/09:30pm 26.8 20.7 0.5 18 12.5 SSW 22 32 12 17 1016.2 1014.8 0.0
19/09:00pm 27.5 21.3 -0.5 16 13.2 SSW 22 32 12 17 1015.9 1014.5 0.0
19/08:30pm 28.2 21.7 -2.8 13 14.1 SW 22 32 12 17 1015.8 1014.4 0.0
19/08:00pm 29.1 22.1 -3.2 12 14.7 SSW 24 32 13 17 1015.5 1014.1 0.0
19/07:30pm 30.0 22.4 -2.5 12 15.0 SSW 28 35 15 19 1015.3 1013.9 0.0
19/07:00pm 30.5 22.9 -2.1 12 15.2 SSW 28 37 15 20 1015.1 1013.7 0.0
19/06:30pm 30.8 23.9 -3.0 11 15.6 SSW 24 32 13 17 1014.9 1013.5 0.0
19/06:00pm 31.5 25.7 -1.3 12 15.7 S 19 30 10 16 1014.9 1013.5 0.0
19/05:30pm 31.0 25.1 -0.6 13 15.2 SSW 20 35 11 19 1015.0 1013.6 0.0
19/05:00pm 31.7 25.7 -1.2 12 15.8 S 20 33 11 18 1015.1 1013.7 0.0
19/04:30pm 32.0 25.9 -2.1 11 16.1 SSW 20 35 11 19 1015.4 1014.0 0.0
19/04:00pm 31.5 25.7 -0.2 13 15.4 SW 20 37 11 20 1015.8 1014.4 0.0
19/03:30pm 31.1 25.4 0.5 14 15.0 SW 20 33 11 18 1016.2 1014.8 0.0
19/03:00pm 31.4 25.8 -0.3 13 15.4 SSW 19 35 10 19 1016.6 1015.1 0.0
19/02:30pm 31.1 26.3 0.5 14 15.0 SW 15 24 8 13 1016.7 1015.2 0.0
19/02:00pm 30.1 25.6 2.4 17 14.0 WSW 15 30 8 16 1017.1 1015.7 0.0
19/01:30pm 30.3 26.2 2.5 17 14.0 WNW 13 20 7 11 1017.4 1016.0 0.0
19/01:00pm 29.2 24.9 3.2 19 13.2 W 15 26 8 14 1017.8 1016.4 0.0
19/12:30pm 28.2 25.7 4.5 22 12.2 NNW 7 15 4 8 1018.2 1016.8 0.0
19/12:00pm 26.8 23.8 4.0 23 11.5 S 9 19 5 10 1018.2 1016.8 0.0
19/11:30am 27.1 24.1 4.2 23 11.7 SE 9 17 5 9 1018.2 1016.8 0.0
19/11:00am 25.8 22.3 5.4 27 10.5 S 13 20 7 11 1018.3 1016.9 0.0
19/10:30am 25.2 23.0 6.4 30 9.8 E 7 17 4 9 1018.3 1016.9 0.0
19/10:00am 24.2 20.9 6.5 32 9.2 ENE 13 20 7 11 1018.5 1017.1 0.0
19/09:30am 23.4 18.9 6.2 33 8.9 E 19 24 10 13 1018.5 1017.1 0.0
19/09:00am 23.1 18.7 6.4 34 8.6 ENE 19 24 10 13 1018.3 1016.9 0.0
19/08:30am 22.1 20.0 5.9 35 8.2 NE 6 11 3 6 1018.0 1016.6 0.0
19/08:00am 19.9 18.1 5.5 39 7.2 S 4 9 2 5 1017.7 1016.3 0.0
19/07:30am 18.6 15.9 5.8 43 6.4 S 9 13 5 7 1017.1 1015.7 0.0
19/07:00am 17.4 13.1 5.4 45 5.9 S 17 20 9 11 1016.7 1015.2 0.0
19/06:30am 16.8 11.6 5.4 47 5.5 SSW 22 28 12 15 1016.1 1014.7 0.0
19/06:00am 16.8 12.0 5.7 48 5.4 SSW 20 28 11 15 1015.7 1014.3 0.0
19/05:30am 17.2 13.0 5.8 47 5.6 SSW 17 24 9 13 1015.5 1014.1 0.0
19/05:00am 17.7 12.6 5.9 46 5.8 SSW 22 30 12 16 1015.4 1014.0 0.0
19/04:30am 18.1 13.0 6.0 45 6.0 SSW 22 28 12 15 1015.2 1013.8 0.0
19/04:00am 18.7 14.3 6.5 45 6.2 SSW 19 28 10 15 1015.2 1013.8 0.0
19/03:30am 19.2 13.6 7.0 45 6.2 SSW 26 33 14 18 1015.0 1013.6 0.0
19/03:00am 19.6 14.3 7.0 44 6.5 SSW 24 33 13 18 1014.9 1013.5 0.0
19/02:30am 20.2 13.5 7.2 43 6.7 SSW 32 41 17 22 1014.7 1013.3 0.0
19/02:00am 20.8 13.9 7.4 42 7.0 SSW 33 44 18 24 1014.6 1013.2 0.0
19/01:30am 21.5 14.8 7.3 40 7.4 SSW 32 41 17 22 1014.5 1013.1 0.0
19/01:00am 22.4 16.6 7.8 39 7.7 SSW 28 35 15 19 1014.6 1013.2 0.0
19/12:30am 23.3 17.3 7.0 35 8.5 SSW 28 41 15 22 1014.4 1013.0 0.0
19/12:00am 24.2 18.9 6.9 33 9.1 SSW 24 32 13 17 1014.4 1013.0 0.0
 
Date/Time
CDT
Temp
°C
App
Temp
°C
Dew
Point
Rel
Hum
%
Delta-T
°C
Wind Press
QNH
hPa
Press
MSL
hPa
Rain
since 9 am
mm
Dir
 
Spd
km/h
Gust
km/h
Spd
kts
Gust
kts
18/11:30pm 25.1 19.0 4.8 27 10.3 SSW 26 32 14 17 1014.3 1012.9 0.0
18/11:00pm 26.0 20.1 3.9 24 11.1 SSW 24 30 13 16 1014.2 1012.8 0.0
18/10:30pm 26.6 22.0 3.8 23 11.5 SSW 17 22 9 12 1013.9 1012.5 0.0
18/10:00pm 27.2 22.2 3.7 22 11.9 SSW 19 24 10 13 1013.7 1012.3 0.0
18/09:30pm 27.6 23.1 4.0 22 12.0 SSW 17 20 9 11 1013.4 1011.9 0.0
18/09:00pm 28.3 23.2 3.9 21 12.5 SSW 20 26 11 14 1013.2 1011.7 0.0
18/08:30pm 28.9 23.3 3.7 20 12.9 SSW 22 32 12 17 1013.0 1011.5 0.0
18/08:00pm 29.7 23.6 2.9 18 13.6 SW 24 33 13 18 1012.7 1011.2 0.0
18/07:30pm 30.6 24.5 2.8 17 14.2 SSW 24 33 13 18 1012.5 1011.0 0.0
18/07:00pm 31.7 25.6 2.8 16 14.8 SW 24 35 13 19 1012.1 1010.7 0.0
18/06:30pm 32.0 25.0 2.1 15 15.2 WSW 28 39 15 21 1011.8 1010.4 0.0
18/06:00pm 32.2 25.8 3.2 16 15.0 SSW 26 41 14 22 1011.6 1010.2 0.0
18/05:30pm 32.3 25.5 3.3 16 15.0 SSW 28 41 15 22 1011.8 1010.4 0.0
18/05:00pm 32.5 25.8 3.5 16 15.1 WSW 28 43 15 23 1011.8 1010.4 0.0
18/04:50pm 32.2 25.8 3.2 16 15.0 WSW 26 48 14 26 1011.7 1010.3 0.0
18/04:30pm 31.9 26.0 3.8 17 14.7 SW 24 43 13 23 1011.7 1010.3 0.0
18/04:00pm 32.2 25.8 3.2 16 15.0 SW 26 44 14 24 1011.7 1010.3 0.0

Other Formats:

Comma delimited format used in spreadsheet applications
http://www.bom.gov.au/fwo/IDS60801/IDS60801.94674.axf

JavaScript Object Notation format (JSON) in row-major order
http://www.bom.gov.au/fwo/IDS60801/IDS60801.94674.json